Time;durP1;ratioP1;P1;durP2;ratioP2;P2;SDS_P1;SDS_P2;PMS_P1;PMS_P2;Temp;Humidity;BMP_temperature;BMP_pressure;BME280_temperature;BME280_humidity;BME280_pressure;Samples;Min_cycle;Max_cycle;Signal;HPM_P1;HPM_P2
2023/09/21 00:00:36;;;;;;;;;;;;;;;-140.72;100.00;52658.72;5079872;28;20412;-67
2023/09/21 00:03:02;;;;;;;;;;;;;;;-140.72;100.00;52607.97;5068986;28;20011;-66
2023/09/21 00:08:31;;;;;;;;;;;;;;;-140.72;100.00;52634.38;5068614;28;19979;-66
2023/09/21 00:10:57;;;;;;;;;;;;;;;-140.72;100.00;52618.13;5063575;28;19921;-66
2023/09/21 00:13:32;;;;;;;;;;;;;;;-140.72;100.00;52624.22;5075602;28;19928;-66
2023/09/21 00:15:59;;;;;;;;;;;;;;;-140.72;100.00;52630.31;5071379;28;19921;-67
2023/09/21 00:18:25;;;;;;;;;;;;;;;-140.72;100.00;52628.28;5063035;28;19956;-66
2023/09/21 00:21:06;;;;;;;;;;;;;;;-140.72;100.00;52630.31;5077640;28;19971;-66
2023/09/21 00:23:47;;;;;;;;;;;;;;;-140.72;100.00;52622.19;5072108;28;19927;-66
2023/09/21 00:26:14;;;;;;;;;;;;;;;-140.72;100.00;52642.47;5066773;28;20011;-67
2023/09/21 00:28:41;;;;;;;;;;;;;;;-140.72;100.00;52614.06;5073497;28;19924;-67
2023/09/21 00:31:06;;;;;;;;;;;;;;;-140.72;100.00;52666.84;5078582;28;19927;-67
2023/09/21 00:33:35;;;;;;;;;;;;;;;-140.72;100.00;52610.00;5073778;28;19921;-67
2023/09/21 00:36:09;;;;;;;;;;;;;;;-140.72;100.00;52638.41;5068335;28;19932;-67
2023/09/21 00:38:34;;;;;;;;;;;;;;;-140.72;100.00;52632.34;5069547;28;19960;-67
2023/09/21 00:41:04;;;;;;;;;;;;;;;-140.72;100.00;52622.19;5067509;28;19971;-67
2023/09/21 00:43:40;;;;;;;;;;;;;;;-140.72;100.00;52610.00;5073029;28;19924;-67
2023/09/21 00:46:06;;;;;;;;;;;;;;;-140.72;100.00;52628.28;5070215;28;19928;-67
2023/09/21 00:48:33;;;;;;;;;;;;;;;-140.72;100.00;52650.59;5068251;28;19920;-67
2023/09/21 00:50:59;;;;;;;;;;;;;;;-140.72;100.00;52618.13;5069672;28;19951;-67
2023/09/21 00:53:27;;;;;;;;;;;;;;;-140.72;100.00;52658.72;5070984;28;19920;-67
2023/09/21 00:55:58;;;;;;;;;;;;;;;-140.72;100.00;52652.63;5063850;28;19928;-67
2023/09/21 00:58:25;;;;;;;;;;;;;;;-140.72;100.00;52638.41;5075390;28;19928;-67
2023/09/21 01:00:51;;;;;;;;;;;;;;;-140.72;100.00;52605.94;5072697;28;19956;-67
2023/09/21 01:03:17;;;;;;;;;;;;;;;-140.72;100.00;52642.47;5070621;28;19964;-67
2023/09/21 01:05:45;;;;;;;;;;;;;;;-140.72;100.00;52605.94;5068352;28;19964;-66
2023/09/21 01:08:17;;;;;;;;;;;;;;;-140.72;100.00;52626.25;5071880;28;19925;-67
2023/09/21 01:10:44;;;;;;;;;;;;;;;-140.72;100.00;52656.69;5063196;28;20272;-67
2023/09/21 01:13:11;;;;;;;;;;;;;;;-140.72;100.00;52605.94;5067509;28;19920;-67
2023/09/21 01:15:37;;;;;;;;;;;;;;;-140.72;100.00;52622.19;5068971;28;19931;-67
2023/09/21 01:18:07;;;;;;;;;;;;;;;-140.72;100.00;52634.38;5070225;28;19924;-66
2023/09/21 01:20:32;;;;;;;;;;;;;;;-140.72;100.00;52646.53;5068043;28;19921;-66
2023/09/21 01:23:17;;;;;;;;;;;;;;;-140.72;100.00;52622.19;5071901;28;19927;-67
2023/09/21 01:25:43;;;;;;;;;;;;;;;-140.72;100.00;52644.50;5073287;28;19982;-66
2023/09/21 01:28:23;;;;;;;;;;;;;;;-140.72;100.00;52597.84;5072189;28;19952;-66
2023/09/21 01:30:49;;;;;;;;;;;;;;;-140.72;100.00;52626.25;5072002;28;19920;-66
2023/09/21 01:33:15;;;;;;;;;;;;;;;-140.72;100.00;52630.31;5072785;28;19921;-67
2023/09/21 01:35:44;;;;;;;;;;;;;;;-140.72;100.00;52652.63;5073343;28;19927;-66
2023/09/21 01:38:10;;;;;;;;;;;;;;;-140.72;100.00;52650.59;5072798;28;19924;-66
2023/09/21 01:40:36;;;;;;;;;;;;;;;-140.72;100.00;52628.28;5071208;28;20383;-66
2023/09/21 01:43:03;;;;;;;;;;;;;;;-140.72;100.00;52626.25;5077502;28;19966;-66
2023/09/21 01:45:29;;;;;;;;;;;;;;;-140.72;100.00;52638.41;5066143;28;19920;-66
2023/09/21 01:47:54;;;;;;;;;;;;;;;-140.72;100.00;52614.06;5067481;28;20352;-67
2023/09/21 01:50:21;;;;;;;;;;;;;;;-140.72;100.00;52646.53;5066164;28;19929;-66
2023/09/21 01:52:46;;;;;;;;;;;;;;;-140.72;100.00;52630.31;5070762;28;19925;-67
2023/09/21 01:55:11;;;;;;;;;;;;;;;-140.72;100.00;52632.34;5066730;28;19934;-67
2023/09/21 01:57:37;;;;;;;;;;;;;;;-140.72;100.00;52658.72;5071536;28;19921;-66
2023/09/21 02:00:11;;;;;;;;;;;;;;;-140.72;100.00;52654.66;5070203;28;20379;-66
2023/09/21 02:02:37;;;;;;;;;;;;;;;-140.72;100.00;52614.06;5071799;28;20391;-66
2023/09/21 02:05:03;;;;;;;;;;;;;;;-140.72;100.00;52618.13;5068524;28;19967;-68
2023/09/21 02:07:29;;;;;;;;;;;;;;;-140.72;100.00;52640.44;5068440;28;19927;-66
2023/09/21 02:09:55;;;;;;;;;;;;;;;-140.72;100.00;52662.78;5073145;28;20353;-67
2023/09/21 02:12:37;;;;;;;;;;;;;;;-140.72;100.00;52634.38;5070217;28;20018;-66
2023/09/21 02:15:04;;;;;;;;;;;;;;;-140.72;100.00;52622.19;5069479;28;19921;-67
2023/09/21 02:17:29;;;;;;;;;;;;;;;-140.72;100.00;52648.56;5066615;28;21750;-67
2023/09/21 02:19:55;;;;;;;;;;;;;;;-140.72;100.00;52605.94;5067426;28;19946;-67
2023/09/21 02:22:20;;;;;;;;;;;;;;;-140.72;100.00;52597.84;5071763;28;19924;-67
2023/09/21 02:24:46;;;;;;;;;;;;;;;-140.72;100.00;52622.19;5071705;28;19928;-67
2023/09/21 02:27:11;;;;;;;;;;;;;;;-140.72;100.00;52634.38;5075417;28;19920;-67
2023/09/21 02:29:40;;;;;;;;;;;;;;;-140.72;100.00;52652.63;5066900;28;19999;-67
2023/09/21 02:32:05;;;;;;;;;;;;;;;-140.72;100.00;52658.72;5071780;28;20281;-67
2023/09/21 02:34:31;;;;;;;;;;;;;;;-140.72;100.00;52656.69;5067500;28;19928;-67
2023/09/21 02:36:56;;;;;;;;;;;;;;;-140.72;100.00;52638.41;5072299;28;19928;-67
2023/09/21 02:39:21;;;;;;;;;;;;;;;-140.72;100.00;52632.34;5072158;28;19955;-67
2023/09/21 02:41:47;;;;;;;;;;;;;;;-140.72;100.00;52620.16;5072263;28;19920;-67
2023/09/21 02:44:13;;;;;;;;;;;;;;;-140.72;100.00;52626.25;5065939;28;19921;-67
2023/09/21 02:46:41;;;;;;;;;;;;;;;-140.72;100.00;52679.00;5072514;28;20007;-66
2023/09/21 02:49:07;;;;;;;;;;;;;;;-140.72;100.00;52642.47;5070357;28;20094;-67
2023/09/21 02:51:32;;;;;;;;;;;;;;;-140.72;100.00;52612.03;5070320;28;20042;-67
2023/09/21 02:53:59;;;;;;;;;;;;;;;-140.72;100.00;52628.28;5070994;28;19920;-67
2023/09/21 02:56:25;;;;;;;;;;;;;;;-140.72;100.00;52634.38;5068570;28;19943;-67
2023/09/21 02:58:52;;;;;;;;;;;;;;;-140.72;100.00;52644.50;5073748;28;19924;-67
2023/09/21 03:01:20;;;;;;;;;;;;;;;-140.72;100.00;52654.66;5068083;28;20271;-67
2023/09/21 03:03:46;;;;;;;;;;;;;;;-140.72;100.00;52638.41;5065525;28;19974;-67
2023/09/21 03:06:16;;;;;;;;;;;;;;;-140.72;100.00;52656.69;5081548;28;20326;-67
2023/09/21 03:08:41;;;;;;;;;;;;;;;-140.72;100.00;52642.47;5073776;28;20007;-66
2023/09/21 03:11:10;;;;;;;;;;;;;;;-140.72;100.00;52687.13;5072566;28;20011;-66
2023/09/21 03:13:36;;;;;;;;;;;;;;;-140.72;100.00;52681.03;5074853;28;19986;-66
2023/09/21 03:16:01;;;;;;;;;;;;;;;-140.72;100.00;52721.63;5068959;28;19920;-66
2023/09/21 03:18:27;;;;;;;;;;;;;;;-140.72;100.00;52670.88;5069819;28;19930;-66
2023/09/21 03:20:53;;;;;;;;;;;;;;;-140.72;100.00;52691.19;5077256;28;19920;-66
2023/09/21 03:23:20;;;;;;;;;;;;;;;-140.72;100.00;52687.13;5069588;28;19920;-66
2023/09/21 03:25:49;;;;;;;;;;;;;;;-140.72;100.00;52695.25;5074171;28;19921;-67
2023/09/21 03:28:16;;;;;;;;;;;;;;;-140.72;100.00;52636.38;5060762;28;19920;-66
2023/09/21 03:30:41;;;;;;;;;;;;;;;-140.72;100.00;52666.84;5077242;28;19920;-67
2023/09/21 03:33:07;;;;;;;;;;;;;;;-140.72;100.00;52705.38;5076481;28;19929;-68
2023/09/21 03:35:33;;;;;;;;;;;;;;;-140.72;100.00;52687.13;5070367;28;19920;-68
2023/09/21 03:37:59;;;;;;;;;;;;;;;-140.72;100.00;52685.09;5066307;28;19942;-67
2023/09/21 03:40:30;;;;;;;;;;;;;;;-140.72;100.00;52748.00;5077797;28;19920;-67
2023/09/21 03:42:55;;;;;;;;;;;;;;;-140.72;100.00;52666.84;5066155;28;20023;-67
2023/09/21 03:45:24;;;;;;;;;;;;;;;-140.72;100.00;52741.91;5071938;28;20014;-67
2023/09/21 03:47:49;;;;;;;;;;;;;;;-140.72;100.00;52715.53;5067338;28;20011;-67
2023/09/21 03:50:17;;;;;;;;;;;;;;;-140.72;100.00;52719.59;5073922;28;20014;-67
2023/09/21 03:52:42;;;;;;;;;;;;;;;-140.72;100.00;52745.97;5068928;28;19921;-67
2023/09/21 03:55:10;;;;;;;;;;;;;;;-140.72;100.00;52719.59;5075213;28;19928;-67
2023/09/21 03:57:35;;;;;;;;;;;;;;;-140.72;100.00;52709.44;5074330;28;20286;-68
2023/09/21 04:00:02;;;;;;;;;;;;;;;-140.72;100.00;52713.50;5073623;28;19928;-67
2023/09/21 04:02:32;;;;;;;;;;;;;;;-140.72;100.00;52662.78;5072212;28;20418;-67
2023/09/21 04:05:05;;;;;;;;;;;;;;;-140.72;100.00;52713.50;5070205;28;20020;-67
2023/09/21 04:07:30;;;;;;;;;;;;;;;-140.72;100.00;52715.53;5069000;28;19924;-67
2023/09/21 04:09:55;;;;;;;;;;;;;;;-140.72;100.00;52676.97;5065475;28;19920;-67
2023/09/21 04:12:20;;;;;;;;;;;;;;;-140.72;100.00;52693.22;5072168;28;19927;-67
2023/09/21 04:14:46;;;;;;;;;;;;;;;-140.72;100.00;52721.63;5073388;28;19943;-67
2023/09/21 04:17:11;;;;;;;;;;;;;;;-140.72;100.00;52752.06;5068023;28;19928;-68
2023/09/21 04:19:37;;;;;;;;;;;;;;;-140.72;100.00;52727.72;5069780;28;19928;-68
2023/09/21 04:22:02;;;;;;;;;;;;;;;-140.72;100.00;52741.91;5072113;28;20386;-70
2023/09/21 04:24:27;;;;;;;;;;;;;;;-140.72;100.00;52717.56;5073388;28;20382;-68
2023/09/21 04:26:53;;;;;;;;;;;;;;;-140.72;100.00;52743.94;5072847;28;19921;-68
2023/09/21 04:29:18;;;;;;;;;;;;;;;-140.72;100.00;52729.75;5068650;28;20006;-68
2023/09/21 04:31:43;;;;;;;;;;;;;;;-140.72;100.00;52719.59;5064299;28;20007;-67
2023/09/21 04:34:08;;;;;;;;;;;;;;;-140.72;100.00;52719.59;5075831;28;20289;-68
2023/09/21 04:36:33;;;;;;;;;;;;;;;-140.72;100.00;52743.94;5068095;28;19967;-69
2023/09/21 04:39:00;;;;;;;;;;;;;;;-140.72;100.00;52723.66;5069065;28;20406;-68
2023/09/21 04:41:27;;;;;;;;;;;;;;;-140.72;100.00;52711.47;5065915;28;19929;-68
2023/09/21 04:43:52;;;;;;;;;;;;;;;-140.72;100.00;52737.84;5076661;28;19969;-73
2023/09/21 04:46:23;;;;;;;;;;;;;;;-140.72;100.00;52743.94;5067901;28;19920;-72
2023/09/21 04:48:49;;;;;;;;;;;;;;;-140.72;100.00;52723.66;5064259;28;19935;-72
2023/09/21 04:51:15;;;;;;;;;;;;;;;-140.72;100.00;52752.06;5070693;28;19920;-71
2023/09/21 04:53:48;;;;;;;;;;;;;;;-140.72;100.00;52743.94;5070007;28;19967;-71
2023/09/21 04:56:14;;;;;;;;;;;;;;;-140.72;100.00;52766.25;5075116;28;19966;-72
2023/09/21 04:58:42;;;;;;;;;;;;;;;-140.72;100.00;52719.59;5073079;28;19924;-69
2023/09/21 05:01:18;;;;;;;;;;;;;;;-140.72;100.00;52725.69;5071156;28;19920;-71
2023/09/21 05:03:43;;;;;;;;;;;;;;;-140.72;100.00;52705.38;5065798;28;19977;-69
2023/09/21 05:06:13;;;;;;;;;;;;;;;-140.72;100.00;52745.97;5068313;28;20348;-70
2023/09/21 05:08:38;;;;;;;;;;;;;;;-140.72;100.00;52756.13;5062835;28;19939;-70
2023/09/21 05:11:20;;;;;;;;;;;;;;;-140.72;100.00;52756.13;5070545;28;19921;-70
2023/09/21 05:13:46;;;;;;;;;;;;;;;-140.72;100.00;52752.06;5069577;28;19921;-68
2023/09/21 05:16:22;;;;;;;;;;;;;;;-140.72;100.00;52733.78;5069353;28;19943;-67
2023/09/21 05:18:47;;;;;;;;;;;;;;;-140.72;100.00;52739.88;5065120;28;19925;-66
2023/09/21 05:21:12;;;;;;;;;;;;;;;-140.72;100.00;52776.41;5073528;28;19929;-67
2023/09/21 05:23:45;;;;;;;;;;;;;;;-140.72;100.00;52768.28;5065488;28;19943;-68
2023/09/21 05:26:10;;;;;;;;;;;;;;;-140.72;100.00;52748.00;5067678;28;19936;-67
2023/09/21 05:28:36;;;;;;;;;;;;;;;-140.72;100.00;52745.97;5071381;28;19920;-68
2023/09/21 05:31:02;;;;;;;;;;;;;;;-140.72;100.00;52752.06;5073460;28;20402;-67
2023/09/21 05:33:27;;;;;;;;;;;;;;;-140.72;100.00;52764.25;5076814;28;19942;-67
2023/09/21 05:35:53;;;;;;;;;;;;;;;-140.72;100.00;52782.50;5068867;28;19942;-68
2023/09/21 05:38:19;;;;;;;;;;;;;;;-140.72;100.00;52784.53;5066165;28;19920;-68
2023/09/21 05:40:44;;;;;;;;;;;;;;;-140.72;100.00;52760.19;5067829;28;19942;-68
2023/09/21 05:43:30;;;;;;;;;;;;;;;-140.72;100.00;52748.00;5066564;28;19921;-67
2023/09/21 05:46:09;;;;;;;;;;;;;;;-140.72;100.00;52768.28;5069036;28;20401;-67
2023/09/21 05:48:54;;;;;;;;;;;;;;;-140.72;100.00;52768.28;5072309;28;19936;-67
2023/09/21 05:51:20;;;;;;;;;;;;;;;-140.72;100.00;52790.63;5071785;28;19924;-70
2023/09/21 05:53:46;;;;;;;;;;;;;;;-140.72;100.00;52794.69;5075442;28;19946;-73
2023/09/21 05:56:11;;;;;;;;;;;;;;;-140.72;100.00;52780.47;5069951;28;19924;-70
2023/09/21 05:58:37;;;;;;;;;;;;;;;-140.72;100.00;52827.16;5070068;28;19921;-70
2023/09/21 06:01:02;;;;;;;;;;;;;;;-140.72;100.00;52812.94;5065630;28;19921;-67
2023/09/21 06:06:40;;;;;;;;;;;;;;;-140.72;100.00;52808.88;5060499;28;19962;-67
2023/09/21 06:09:10;;;;;;;;;;;;;;;-140.72;100.00;52812.94;5068268;28;19917;-67
2023/09/21 06:11:36;;;;;;;;;;;;;;;-140.72;100.00;52843.38;5068902;28;19920;-67
2023/09/21 06:14:02;;;;;;;;;;;;;;;-140.72;100.00;52810.91;5080741;28;19916;-67
2023/09/21 06:16:29;;;;;;;;;;;;;;;-140.72;100.00;52819.03;5069910;28;19975;-67
2023/09/21 06:18:54;;;;;;;;;;;;;;;-140.72;100.00;52806.84;5086055;28;19925;-68
2023/09/21 06:21:19;;;;;;;;;;;;;;;-140.72;100.00;52770.31;5064308;28;19925;-67
2023/09/21 06:23:45;;;;;;;;;;;;;;;-140.72;100.00;52800.75;5060369;28;20015;-67
2023/09/21 06:26:16;;;;;;;;;;;;;;;-140.72;100.00;52792.66;5078049;28;20363;-67
2023/09/21 06:28:47;;;;;;;;;;;;;;;-140.72;100.00;52812.94;5077127;28;19946;-67
2023/09/21 06:31:13;;;;;;;;;;;;;;;-140.72;100.00;52800.75;5066567;28;19974;-67
2023/09/21 06:33:39;;;;;;;;;;;;;;;-140.72;100.00;52825.13;5077857;28;20333;-68
2023/09/21 06:36:04;;;;;;;;;;;;;;;-140.72;100.00;52796.72;5070501;28;19917;-67
2023/09/21 06:38:29;;;;;;;;;;;;;;;-140.72;100.00;52788.59;5076166;28;20355;-67
2023/09/21 06:40:54;;;;;;;;;;;;;;;-140.72;100.00;52798.72;5065810;28;20397;-67
2023/09/21 06:43:20;;;;;;;;;;;;;;;-140.72;100.00;52788.59;5074209;28;19974;-67
2023/09/21 06:45:45;;;;;;;;;;;;;;;-140.72;100.00;52810.91;5074775;28;19924;-67
2023/09/21 06:48:11;;;;;;;;;;;;;;;-140.72;100.00;52784.53;5061585;28;20418;-67
2023/09/21 06:50:39;;;;;;;;;;;;;;;-140.72;100.00;52800.75;5078008;28;19917;-67
2023/09/21 06:53:05;;;;;;;;;;;;;;;-140.72;100.00;52806.84;5073670;28;19928;-67
2023/09/21 06:55:30;;;;;;;;;;;;;;;-140.72;100.00;52776.41;5078641;28;19916;-67
2023/09/21 06:57:56;;;;;;;;;;;;;;;-140.72;100.00;52831.19;5077280;28;19916;-67
2023/09/21 07:00:21;;;;;;;;;;;;;;;-140.72;100.00;52814.97;5079402;28;19916;-71
2023/09/21 07:02:48;;;;;;;;;;;;;;;-140.72;100.00;52812.94;5070351;28;20386;-68
2023/09/21 07:05:13;;;;;;;;;;;;;;;-140.72;100.00;52812.94;5064489;28;19920;-69
2023/09/21 07:07:41;;;;;;;;;;;;;;;-140.72;100.00;52823.09;5077413;28;20444;-69
2023/09/21 07:10:08;;;;;;;;;;;;;;;-140.72;100.00;52786.56;5071227;28;19943;-70
2023/09/21 07:12:35;;;;;;;;;;;;;;;-140.72;100.00;52794.69;5069689;28;19963;-70
2023/09/21 07:15:01;;;;;;;;;;;;;;;-140.72;100.00;52800.75;5067890;28;19921;-70
2023/09/21 07:17:26;;;;;;;;;;;;;;;-140.72;100.00;52782.50;5077839;28;19932;-69
2023/09/21 07:19:51;;;;;;;;;;;;;;;-140.72;100.00;52802.78;5075915;28;19916;-69
2023/09/21 07:22:16;;;;;;;;;;;;;;;-140.72;100.00;52788.59;5070788;28;19924;-69
2023/09/21 07:24:42;;;;;;;;;;;;;;;-140.72;100.00;52806.84;5067637;28;19917;-69
2023/09/21 07:27:07;;;;;;;;;;;;;;;-140.72;100.00;52794.69;5077136;28;19924;-69
2023/09/21 07:29:33;;;;;;;;;;;;;;;-140.72;100.00;52784.53;5075028;28;19920;-69
2023/09/21 07:31:59;;;;;;;;;;;;;;;-140.72;100.00;52741.91;5076691;28;19920;-70
2023/09/21 07:34:24;;;;;;;;;;;;;;;-140.72;100.00;52739.88;5085683;28;19927;-69
2023/09/21 07:36:49;;;;;;;;;;;;;;;-140.72;100.00;52808.88;5073923;28;19932;-69
2023/09/21 07:39:17;;;;;;;;;;;;;;;-140.72;100.00;52790.63;5089233;28;19916;-69
2023/09/21 07:41:42;;;;;;;;;;;;;;;-140.72;100.00;52798.72;5068492;28;19923;-69
2023/09/21 07:44:11;;;;;;;;;;;;;;;-140.72;100.00;52780.47;5089079;28;19920;-69
2023/09/21 07:46:36;;;;;;;;;;;;;;;-140.72;100.00;52796.72;5073066;28;19916;-69
2023/09/21 07:49:02;;;;;;;;;;;;;;;-140.72;100.00;52772.34;5086350;28;20389;-69
2023/09/21 07:51:28;;;;;;;;;;;;;;;-140.72;100.00;52778.44;5072826;28;19920;-70
2023/09/21 07:53:53;;;;;;;;;;;;;;;-140.72;100.00;52784.53;5069022;28;20019;-69
2023/09/21 07:56:18;;;;;;;;;;;;;;;-140.72;100.00;52780.47;5086720;28;19971;-69
2023/09/21 07:58:44;;;;;;;;;;;;;;;-140.72;100.00;52780.47;5071432;28;19917;-70
2023/09/21 08:01:09;;;;;;;;;;;;;;;-140.72;100.00;52794.69;5069134;28;19920;-70
2023/09/21 08:03:34;;;;;;;;;;;;;;;-140.72;100.00;52800.75;5075937;28;19921;-69
2023/09/21 08:06:01;;;;;;;;;;;;;;;-140.72;100.00;52800.75;5087634;28;19921;-69
2023/09/21 08:08:26;;;;;;;;;;;;;;;-140.72;100.00;52814.97;5067612;28;19917;-69
2023/09/21 08:10:56;;;;;;;;;;;;;;;-140.72;100.00;52782.50;5066092;28;19921;-69
2023/09/21 08:13:23;;;;;;;;;;;;;;;-140.72;100.00;52814.97;5063383;28;20338;-69
2023/09/21 08:15:48;;;;;;;;;;;;;;;-140.72;100.00;52776.41;5063158;28;20019;-69
2023/09/21 08:18:13;;;;;;;;;;;;;;;-140.72;100.00;52776.41;5074692;28;19948;-69
2023/09/21 08:20:42;;;;;;;;;;;;;;;-140.72;100.00;52794.69;5074404;28;20064;-69
2023/09/21 08:23:07;;;;;;;;;;;;;;;-140.72;100.00;52776.41;5067221;28;20390;-69
2023/09/21 08:25:35;;;;;;;;;;;;;;;-140.72;100.00;52776.41;5065742;28;19916;-69
2023/09/21 08:28:03;;;;;;;;;;;;;;;-140.72;100.00;52735.81;5080274;28;20309;-69
2023/09/21 08:30:29;;;;;;;;;;;;;;;-140.72;100.00;52788.59;5083309;28;19924;-69
2023/09/21 08:32:54;;;;;;;;;;;;;;;-140.72;100.00;52756.13;5074080;28;19926;-71
2023/09/21 08:35:19;;;;;;;;;;;;;;;-140.72;100.00;52745.97;5069735;28;19925;-69
2023/09/21 08:37:44;;;;;;;;;;;;;;;-140.72;100.00;52737.84;5068137;28;20329;-69
2023/09/21 08:40:10;;;;;;;;;;;;;;;-140.72;100.00;52774.38;5066493;28;19924;-69
2023/09/21 08:42:36;;;;;;;;;;;;;;;-140.72;100.00;52768.28;5070676;28;20010;-69
2023/09/21 08:45:03;;;;;;;;;;;;;;;-140.72;100.00;52768.28;5064386;28;20379;-69
2023/09/21 08:47:30;;;;;;;;;;;;;;;-140.72;100.00;52772.34;5074589;28;20382;-69
2023/09/21 08:49:57;;;;;;;;;;;;;;;-140.72;100.00;52768.28;5071559;28;19924;-70
2023/09/21 08:52:23;;;;;;;;;;;;;;;-140.72;100.00;52800.75;5077802;28;20290;-71
2023/09/21 08:54:49;;;;;;;;;;;;;;;-140.72;100.00;52756.13;5065538;28;19928;-69
2023/09/21 08:57:14;;;;;;;;;;;;;;;-140.72;100.00;52756.13;5084733;28;19986;-70
2023/09/21 08:59:40;;;;;;;;;;;;;;;-140.72;100.00;52794.69;5074240;28;19936;-70
2023/09/21 09:02:09;;;;;;;;;;;;;;;-140.72;100.00;52743.94;5093162;28;19967;-70
2023/09/21 09:04:36;;;;;;;;;;;;;;;-140.72;100.00;52745.97;5088324;28;19982;-70
2023/09/21 09:07:02;;;;;;;;;;;;;;;-140.72;100.00;52768.28;5072262;28;19928;-70
2023/09/21 09:09:27;;;;;;;;;;;;;;;-140.72;100.00;52748.00;5070394;28;19924;-70
2023/09/21 09:11:52;;;;;;;;;;;;;;;-140.72;100.00;52776.41;5064822;28;19917;-69
2023/09/21 09:14:19;;;;;;;;;;;;;;;-140.72;100.00;52800.75;5062226;28;19935;-69
2023/09/21 09:16:46;;;;;;;;;;;;;;;-140.72;100.00;52782.50;5062745;28;19917;-69
2023/09/21 09:19:11;;;;;;;;;;;;;;;-140.72;100.00;52780.47;5069130;28;20393;-70
2023/09/21 09:21:37;;;;;;;;;;;;;;;-140.72;100.00;52778.44;5063728;28;19925;-69
2023/09/21 09:24:04;;;;;;;;;;;;;;;-140.72;100.00;52778.44;5073058;28;19924;-69
2023/09/21 09:26:29;;;;;;;;;;;;;;;-140.72;100.00;52788.59;5081927;28;19955;-69
2023/09/21 09:29:05;;;;;;;;;;;;;;;-140.72;100.00;52768.28;5063916;28;19959;-69
2023/09/21 09:31:30;;;;;;;;;;;;;;;-140.72;100.00;52798.72;5075131;28;19920;-69
2023/09/21 09:33:57;;;;;;;;;;;;;;;-140.72;100.00;52748.00;5071514;28;19920;-69
2023/09/21 09:36:23;;;;;;;;;;;;;;;-140.72;100.00;52778.44;5073424;28;20375;-70
2023/09/21 09:38:48;;;;;;;;;;;;;;;-140.72;100.00;52782.50;5075876;28;19999;-69
2023/09/21 09:41:14;;;;;;;;;;;;;;;-140.72;100.00;52804.81;5089888;28;20007;-69
2023/09/21 09:43:41;;;;;;;;;;;;;;;-140.72;100.00;52788.59;5068593;28;19972;-70
2023/09/21 09:46:09;;;;;;;;;;;;;;;-140.72;100.00;52825.13;5056257;28;19921;-70
2023/09/21 09:48:35;;;;;;;;;;;;;;;-140.72;100.00;52764.25;5064099;28;19920;-69
2023/09/21 09:51:05;;;;;;;;;;;;;;;-140.72;100.00;52808.88;5064156;28;19921;-69
2023/09/21 09:53:31;;;;;;;;;;;;;;;-140.72;100.00;52802.78;5063563;28;19931;-69
2023/09/21 09:55:58;;;;;;;;;;;;;;;-140.72;100.00;52784.53;5070007;28;20345;-69
2023/09/21 09:58:26;;;;;;;;;;;;;;;-140.72;100.00;52802.78;5066188;28;19924;-69
2023/09/21 10:00:52;;;;;;;;;;;;;;;-140.72;100.00;52798.72;5064146;28;19923;-69
2023/09/21 10:03:18;;;;;;;;;;;;;;;-140.72;100.00;52800.75;5063549;28;20294;-69
2023/09/21 10:05:46;;;;;;;;;;;;;;;-140.72;100.00;52849.47;5069811;28;19920;-69
2023/09/21 10:08:11;;;;;;;;;;;;;;;-140.72;100.00;52802.78;5070656;28;20003;-69
2023/09/21 10:10:38;;;;;;;;;;;;;;;-140.72;100.00;52788.59;5058601;28;19963;-69
2023/09/21 10:13:05;;;;;;;;;;;;;;;-140.72;100.00;52808.88;5066959;28;19916;-69
2023/09/21 10:15:33;;;;;;;;;;;;;;;-140.72;100.00;52841.34;5070706;28;20020;-69
2023/09/21 10:17:59;;;;;;;;;;;;;;;-140.72;100.00;52814.97;5060322;28;19967;-69
2023/09/21 10:20:25;;;;;;;;;;;;;;;-140.72;100.00;52804.81;5060522;28;19963;-70
2023/09/21 10:22:53;;;;;;;;;;;;;;;-140.72;100.00;52790.63;5065548;28;19924;-69
2023/09/21 10:25:37;;;;;;;;;;;;;;;-140.72;100.00;52823.09;5067926;28;20390;-69
2023/09/21 10:28:27;;;;;;;;;;;;;;;-140.72;100.00;52790.63;5078435;28;20345;-69
2023/09/21 10:30:53;;;;;;;;;;;;;;;-140.72;100.00;52817.00;5078411;28;19929;-69
2023/09/21 10:33:18;;;;;;;;;;;;;;;-140.72;100.00;52804.81;5073130;28;19928;-69
2023/09/21 10:35:49;;;;;;;;;;;;;;;-140.72;100.00;52772.34;5065600;28;20382;-70
2023/09/21 10:38:15;;;;;;;;;;;;;;;-140.72;100.00;52817.00;5067821;28;19924;-70
2023/09/21 10:40:40;;;;;;;;;;;;;;;-140.72;100.00;52772.34;5071875;28;19928;-70
2023/09/21 10:43:24;;;;;;;;;;;;;;;-140.72;100.00;52800.75;5073529;28;19923;-69
2023/09/21 10:45:53;;;;;;;;;;;;;;;-140.72;100.00;52748.00;5084207;28;19931;-69
2023/09/21 10:48:19;;;;;;;;;;;;;;;-140.72;100.00;52768.28;5066501;28;19927;-69
2023/09/21 10:50:45;;;;;;;;;;;;;;;-140.72;100.00;52766.25;5066914;28;19917;-69
2023/09/21 10:53:11;;;;;;;;;;;;;;;-140.72;100.00;52772.34;5065995;28;19927;-70
2023/09/21 10:55:36;;;;;;;;;;;;;;;-140.72;100.00;52784.53;5065744;28;19995;-70
2023/09/21 10:58:02;;;;;;;;;;;;;;;-140.72;100.00;52776.41;5067383;28;19924;-70
2023/09/21 11:00:27;;;;;;;;;;;;;;;-140.72;100.00;52760.19;5072571;28;19927;-70
2023/09/21 11:02:54;;;;;;;;;;;;;;;-140.72;100.00;52796.72;5075188;28;19920;-70
2023/09/21 11:05:21;;;;;;;;;;;;;;;-140.72;100.00;52780.47;5070895;28;19933;-70
2023/09/21 11:07:47;;;;;;;;;;;;;;;-140.72;100.00;52776.41;5079664;28;20961;-70
2023/09/21 11:10:14;;;;;;;;;;;;;;;-140.72;100.00;52768.28;5065468;28;21079;-70
2023/09/21 11:12:42;;;;;;;;;;;;;;;-140.72;100.00;52756.13;5063293;28;19924;-70
2023/09/21 11:15:12;;;;;;;;;;;;;;;-140.72;100.00;52772.34;5061951;28;19924;-70
2023/09/21 11:17:39;;;;;;;;;;;;;;;-140.72;100.00;52776.41;5071125;28;19958;-70
2023/09/21 11:20:05;;;;;;;;;;;;;;;-140.72;100.00;52782.50;5061357;28;19925;-70
2023/09/21 11:22:31;;;;;;;;;;;;;;;-140.72;100.00;52774.38;5071813;28;19931;-70
2023/09/21 11:24:56;;;;;;;;;;;;;;;-140.72;100.00;52752.06;5059833;28;19928;-70
2023/09/21 11:27:25;;;;;;;;;;;;;;;-140.72;100.00;52735.81;5071255;28;20282;-71
2023/09/21 11:29:51;;;;;;;;;;;;;;;-140.72;100.00;52743.94;5063404;28;19975;-71
2023/09/21 11:32:18;;;;;;;;;;;;;;;-140.72;100.00;52778.44;5065109;28;19981;-70
2023/09/21 11:34:43;;;;;;;;;;;;;;;-140.72;100.00;52774.38;5074582;28;19920;-71
2023/09/21 11:37:10;;;;;;;;;;;;;;;-140.72;100.00;52766.25;5061656;28;20012;-70
2023/09/21 11:39:36;;;;;;;;;;;;;;;-140.72;100.00;52739.88;5063651;28;19943;-71
2023/09/21 11:42:01;;;;;;;;;;;;;;;-140.72;100.00;52772.34;5067813;28;20401;-71
2023/09/21 11:44:29;;;;;;;;;;;;;;;-140.72;100.00;52806.84;5061984;28;19952;-71
2023/09/21 11:46:57;;;;;;;;;;;;;;;-140.72;100.00;52784.53;5067509;28;19921;-72
2023/09/21 11:49:23;;;;;;;;;;;;;;;-140.72;100.00;52762.22;5075601;28;19920;-72
2023/09/21 11:51:50;;;;;;;;;;;;;;;-140.72;100.00;52756.13;5070173;28;19923;-71
2023/09/21 11:54:15;;;;;;;;;;;;;;;-140.72;100.00;52750.03;5065401;28;19921;-72
2023/09/21 11:56:42;;;;;;;;;;;;;;;-140.72;100.00;52808.88;5077960;28;19935;-71
2023/09/21 11:59:07;;;;;;;;;;;;;;;-140.72;100.00;52790.63;5069656;28;19970;-71
2023/09/21 12:01:34;;;;;;;;;;;;;;;-140.72;100.00;52772.34;5070819;28;19916;-71
2023/09/21 12:04:00;;;;;;;;;;;;;;;-140.72;100.00;52778.44;5073910;28;19940;-71
2023/09/21 12:06:27;;;;;;;;;;;;;;;-140.72;100.00;52756.13;5078839;28;19920;-71
2023/09/21 12:08:53;;;;;;;;;;;;;;;-140.72;100.00;52780.47;5082912;28;19916;-71
2023/09/21 12:11:21;;;;;;;;;;;;;;;-140.72;100.00;52758.16;5075833;28;19921;-70
2023/09/21 12:13:46;;;;;;;;;;;;;;;-140.72;100.00;52760.19;5064229;28;19975;-68
2023/09/21 12:16:11;;;;;;;;;;;;;;;-140.72;100.00;52737.84;5065492;28;19921;-68
2023/09/21 12:18:36;;;;;;;;;;;;;;;-140.72;100.00;52748.00;5058814;28;20383;-68
2023/09/21 12:21:03;;;;;;;;;;;;;;;-140.72;100.00;52731.75;5065525;28;19916;-68
2023/09/21 12:23:28;;;;;;;;;;;;;;;-140.72;100.00;52709.44;5064311;28;19958;-69